Time;durP1;ratioP1;P1;durP2;ratioP2;P2;SDS_P1;SDS_P2;PMS_P1;PMS_P2;Temp;Humidity;BMP_temperature;BMP_pressure;BME280_temperature;BME280_humidity;BME280_pressure;Samples;Min_cycle;Max_cycle;Signal;HPM_P1;HPM_P2
2022/12/06 00:00:24;;;;;;;;;;;4.80;99.90;;;;;;4992325;28;1119;-61
2022/12/06 00:02:49;;;;;;;;;;;4.70;99.90;;;;;;4991895;28;1964;-61
2022/12/06 00:05:15;;;;;;;;;;;4.80;99.90;;;;;;4991993;28;1329;-61
2022/12/06 00:07:40;;;;;;;;;;;4.80;99.90;;;;;;4975070;28;1096;-61
2022/12/06 00:10:06;;;;;;;;;;;4.80;99.90;;;;;;4998594;28;1239;-61
2022/12/06 00:12:32;;;;;;;;;;;4.90;99.90;;;;;;5011590;28;1150;-61
2022/12/06 00:14:58;;;;;;;;;;;4.90;99.90;;;;;;4995474;28;1442;-61
2022/12/06 00:17:23;;;;;;;;;;;4.90;99.90;;;;;;4992762;28;1103;-61
2022/12/06 00:19:49;;;;;;;;;;;5.10;99.90;;;;;;4994046;28;1087;-61
2022/12/06 00:22:15;;;;;;;;;;;5.10;99.90;;;;;;5011113;28;1922;-61
2022/12/06 00:24:40;;;;;;;;;;;5.40;99.90;;;;;;5012002;28;1122;-61
2022/12/06 00:27:06;;;;;;;;;;;5.30;99.90;;;;;;5000588;28;1138;-61
2022/12/06 00:29:32;;;;;;;;;;;5.40;99.90;;;;;;4981881;28;1206;-61
2022/12/06 00:31:57;;;;;;;;;;;5.40;99.90;;;;;;4992132;28;1336;-61
2022/12/06 00:34:23;;;;;;;;;;;5.40;99.90;;;;;;4992101;28;1103;-61
2022/12/06 00:36:49;;;;;;;;;;;5.40;99.90;;;;;;5003856;28;1201;-61
2022/12/06 00:39:15;;;;;;;;;;;5.50;99.90;;;;;;4991887;28;1623;-61
2022/12/06 00:41:42;;;;;;;;;;;5.50;99.90;;;;;;4991556;28;1082;-61
2022/12/06 00:44:07;;;;;;;;;;;5.50;99.90;;;;;;4973368;28;1919;-61
2022/12/06 00:46:34;;;;;;;;;;;5.40;99.90;;;;;;4974257;28;1103;-61
2022/12/06 00:49:00;;;;;;;;;;;5.40;99.90;;;;;;4991682;28;1099;-61
2022/12/06 00:51:27;;;;;;;;;;;5.30;99.90;;;;;;4990914;28;1056;-61
2022/12/06 00:53:53;;;;;;;;;;;5.50;99.90;;;;;;4998465;28;1244;-61
2022/12/06 00:56:18;;;;;;;;;;;5.40;99.90;;;;;;5011034;28;1075;-61
2022/12/06 00:58:44;;;;;;;;;;;5.60;99.90;;;;;;5009420;28;1181;-61
2022/12/06 01:01:13;;;;;;;;;;;5.60;99.90;;;;;;5009173;28;1157;-61
2022/12/06 01:03:39;;;;;;;;;;;5.60;99.90;;;;;;4978752;28;1910;-61
2022/12/06 01:06:07;;;;;;;;;;;5.50;99.90;;;;;;4990814;28;1143;-61
2022/12/06 01:08:33;;;;;;;;;;;5.50;99.90;;;;;;4991394;28;1239;-61
2022/12/06 01:10:59;;;;;;;;;;;5.50;99.90;;;;;;4974643;28;1088;-61
2022/12/06 01:13:24;;;;;;;;;;;5.40;99.90;;;;;;5006754;28;1192;-61
2022/12/06 01:15:50;;;;;;;;;;;5.50;99.90;;;;;;4991356;28;1170;-61
2022/12/06 01:18:16;;;;;;;;;;;5.60;99.90;;;;;;4990222;28;1127;-61
2022/12/06 01:20:42;;;;;;;;;;;5.60;99.90;;;;;;4990441;28;1068;-61
2022/12/06 01:23:07;;;;;;;;;;;5.60;99.90;;;;;;4991270;28;1965;-61
2022/12/06 01:25:33;;;;;;;;;;;5.60;99.90;;;;;;4990415;28;1146;-61
2022/12/06 01:27:58;;;;;;;;;;;5.60;99.90;;;;;;4989560;28;1893;-61
2022/12/06 01:30:24;;;;;;;;;;;5.60;99.90;;;;;;4991153;28;1087;-61
2022/12/06 01:32:50;;;;;;;;;;;5.60;99.90;;;;;;4990071;28;1339;-61
2022/12/06 01:35:15;;;;;;;;;;;5.60;99.90;;;;;;4991899;28;1108;-61
2022/12/06 01:37:41;;;;;;;;;;;5.50;99.90;;;;;;5000693;28;1263;-61
2022/12/06 01:40:07;;;;;;;;;;;5.50;99.90;;;;;;4989855;28;1118;-61
2022/12/06 01:42:33;;;;;;;;;;;5.60;99.90;;;;;;4990835;28;1979;-61
2022/12/06 01:44:59;;;;;;;;;;;5.80;99.90;;;;;;4990211;28;1031;-61
2022/12/06 01:47:26;;;;;;;;;;;5.50;99.90;;;;;;4996725;28;1144;-61
2022/12/06 01:49:54;;;;;;;;;;;6.00;99.90;;;;;;5010364;28;1083;-61
2022/12/06 01:52:22;;;;;;;;;;;5.50;99.90;;;;;;5010268;28;1118;-61
2022/12/06 01:54:47;;;;;;;;;;;5.60;99.90;;;;;;5005700;28;1070;-61
2022/12/06 01:57:14;;;;;;;;;;;5.40;99.90;;;;;;5010428;28;1178;-61
2022/12/06 01:59:40;;;;;;;;;;;5.50;99.90;;;;;;5010021;28;1169;-61
2022/12/06 02:02:06;;;;;;;;;;;5.50;99.90;;;;;;5008930;28;1119;-61
2022/12/06 02:04:31;;;;;;;;;;;5.70;99.90;;;;;;4998874;28;1985;-61
2022/12/06 02:06:58;;;;;;;;;;;5.60;99.90;;;;;;5009802;28;1147;-61
2022/12/06 02:09:25;;;;;;;;;;;5.50;99.90;;;;;;5003156;28;1102;-61
2022/12/06 02:11:51;;;;;;;;;;;5.60;99.90;;;;;;4990362;28;1182;-61
2022/12/06 02:14:18;;;;;;;;;;;5.50;99.90;;;;;;4982439;28;1212;-61
2022/12/06 02:16:50;;;;;;;;;;;5.50;99.90;;;;;;5009035;28;1146;-61
2022/12/06 02:19:27;;;;;;;;;;;5.50;99.90;;;;;;5009776;28;1133;-61
2022/12/06 02:21:58;;;;;;;;;;;5.50;99.90;;;;;;4999623;28;1071;-61
2022/12/06 02:24:24;;;;;;;;;;;5.60;99.90;;;;;;5007113;28;1971;-61
2022/12/06 02:26:58;;;;;;;;;;;5.60;99.90;;;;;;4997210;28;1190;-61
2022/12/06 02:29:35;;;;;;;;;;;5.50;99.90;;;;;;4989024;28;1162;-61
2022/12/06 02:32:16;;;;;;;;;;;5.60;99.90;;;;;;4989230;28;1314;-61
2022/12/06 02:34:45;;;;;;;;;;;5.50;99.90;;;;;;4987879;28;1199;-61
2022/12/06 02:37:13;;;;;;;;;;;5.60;99.90;;;;;;5002067;28;1322;-61
2022/12/06 02:39:39;;;;;;;;;;;5.50;99.90;;;;;;4988835;28;1150;-61
2022/12/06 02:42:07;;;;;;;;;;;5.50;99.90;;;;;;5006617;28;1170;-61
2022/12/06 02:44:37;;;;;;;;;;;5.50;99.90;;;;;;4991373;28;1922;-60
2022/12/06 02:47:04;;;;;;;;;;;5.40;99.90;;;;;;4987780;28;1081;-61
2022/12/06 02:49:31;;;;;;;;;;;5.40;99.90;;;;;;4990479;28;1316;-60
2022/12/06 02:51:57;;;;;;;;;;;5.30;99.90;;;;;;4991014;28;1225;-60
2022/12/06 02:54:24;;;;;;;;;;;5.40;99.90;;;;;;4989228;28;1130;-61
2022/12/06 02:56:50;;;;;;;;;;;5.70;99.90;;;;;;4979250;28;1091;-60
2022/12/06 02:59:15;;;;;;;;;;;5.40;99.90;;;;;;4990335;28;1203;-60
2022/12/06 03:01:43;;;;;;;;;;;5.30;99.90;;;;;;4971755;28;1110;-60
2022/12/06 03:04:30;;;;;;;;;;;5.30;99.90;;;;;;4988449;28;2000;-60
2022/12/06 03:07:02;;;;;;;;;;;5.30;99.90;;;;;;4997378;28;1180;-61
2022/12/06 03:09:48;;;;;;;;;;;5.40;99.90;;;;;;4991130;28;1178;-61
2022/12/06 03:12:28;;;;;;;;;;;5.50;99.90;;;;;;5008616;28;1161;-61
2022/12/06 03:15:09;;;;;;;;;;;5.40;99.90;;;;;;5000369;28;1438;-61
2022/12/06 03:17:47;;;;;;;;;;;5.50;99.90;;;;;;5008782;28;1067;-60
2022/12/06 03:20:17;;;;;;;;;;;5.40;99.90;;;;;;5009184;28;1102;-60
2022/12/06 03:22:51;;;;;;;;;;;5.50;99.90;;;;;;5012471;28;1906;-60
2022/12/06 03:25:17;;;;;;;;;;;5.50;99.90;;;;;;4985295;28;1092;-61
2022/12/06 03:27:44;;;;;;;;;;;5.50;99.90;;;;;;4993343;28;1115;-60
2022/12/06 03:30:10;;;;;;;;;;;5.30;99.90;;;;;;4993232;28;1135;-61
2022/12/06 03:32:37;;;;;;;;;;;5.30;99.90;;;;;;4991813;28;1353;-60
2022/12/06 03:35:06;;;;;;;;;;;5.20;99.90;;;;;;4993396;28;1119;-61
2022/12/06 03:37:32;;;;;;;;;;;5.20;99.90;;;;;;5006293;28;1259;-61
2022/12/06 03:39:58;;;;;;;;;;;5.20;99.90;;;;;;4974314;28;1169;-61
2022/12/06 03:42:24;;;;;;;;;;;5.20;99.90;;;;;;4998647;28;1971;-61
2022/12/06 03:44:50;;;;;;;;;;;5.10;99.90;;;;;;5012673;28;1118;-60
2022/12/06 03:47:25;;;;;;;;;;;5.20;99.90;;;;;;5011683;28;1099;-61
2022/12/06 03:49:55;;;;;;;;;;;5.10;99.90;;;;;;4980596;28;1095;-61
2022/12/06 03:52:22;;;;;;;;;;;5.00;99.90;;;;;;5012223;28;1173;-61
2022/12/06 03:54:47;;;;;;;;;;;5.10;99.90;;;;;;5011398;28;1023;-61
2022/12/06 03:57:13;;;;;;;;;;;5.10;99.90;;;;;;5012483;28;1126;-61
2022/12/06 03:59:39;;;;;;;;;;;5.10;99.90;;;;;;5001716;28;1102;-61
2022/12/06 04:02:04;;;;;;;;;;;5.10;99.90;;;;;;5011276;28;1146;-61
2022/12/06 04:04:30;;;;;;;;;;;5.20;99.90;;;;;;5011886;28;1965;-61
2022/12/06 04:06:56;;;;;;;;;;;5.20;99.90;;;;;;5012145;28;1192;-60
2022/12/06 04:12:59;;;;;;;;;;;5.20;99.90;;;;;;4994696;28;1138;-60
2022/12/06 04:14:51;;;;;;;;;;;5.30;99.90;;;;;;4996054;28;1410;-61
2022/12/06 04:20:01;;;;;;;;;;;5.40;99.90;;;;;;5011708;28;1139;-60
2022/12/06 04:25:11;;;;;;;;;;;6.10;99.90;;;;;;4985170;28;1104;-60
2022/12/06 04:38:41;;;;;;;;;;;5.50;99.90;;;;;;4996532;28;1258;-60
2022/12/06 04:41:07;;;;;;;;;;;6.00;99.90;;;;;;4991951;28;1115;-60
2022/12/06 04:43:41;;;;;;;;;;;5.50;99.90;;;;;;4990773;28;1969;-60
2022/12/06 04:46:08;;;;;;;;;;;5.40;99.90;;;;;;4991682;28;1084;-61
2022/12/06 04:48:34;;;;;;;;;;;5.30;99.90;;;;;;4991686;28;1158;-61
2022/12/06 04:50:59;;;;;;;;;;;5.30;99.90;;;;;;4991202;28;1174;-60
2022/12/06 04:53:25;;;;;;;;;;;5.30;99.90;;;;;;5007781;28;1242;-61
2022/12/06 04:55:51;;;;;;;;;;;5.60;99.90;;;;;;4993857;28;1000;-60
2022/12/06 04:58:17;;;;;;;;;;;5.40;99.90;;;;;;5010482;28;1195;-60
2022/12/06 05:00:46;;;;;;;;;;;5.40;99.90;;;;;;5005253;28;1150;-60
2022/12/06 05:03:13;;;;;;;;;;;5.50;99.90;;;;;;5007717;28;1969;-61
2022/12/06 05:05:39;;;;;;;;;;;5.50;99.90;;;;;;5010709;28;1278;-61
2022/12/06 05:08:05;;;;;;;;;;;5.30;99.90;;;;;;5010604;28;1098;-60
2022/12/06 05:10:31;;;;;;;;;;;5.40;99.90;;;;;;4996794;28;1183;-60
2022/12/06 05:12:56;;;;;;;;;;;5.40;99.90;;;;;;4974013;28;1103;-60
2022/12/06 05:15:22;;;;;;;;;;;5.40;99.90;;;;;;5010265;28;1466;-61
2022/12/06 05:17:48;;;;;;;;;;;5.40;99.90;;;;;;4991658;28;1166;-61
2022/12/06 05:20:13;;;;;;;;;;;5.30;99.90;;;;;;5001226;28;1075;-60
2022/12/06 05:22:40;;;;;;;;;;;5.40;99.90;;;;;;4980125;28;1934;-61
2022/12/06 05:25:05;;;;;;;;;;;5.50;99.90;;;;;;4990686;28;1312;-60
2022/12/06 05:27:31;;;;;;;;;;;5.30;99.90;;;;;;4991887;28;1095;-60
2022/12/06 05:29:57;;;;;;;;;;;5.60;99.90;;;;;;4990926;28;1080;-60
2022/12/06 05:32:23;;;;;;;;;;;5.30;99.90;;;;;;4982666;28;1195;-60
2022/12/06 05:34:49;;;;;;;;;;;5.30;99.90;;;;;;4957272;28;1104;-60
2022/12/06 05:37:14;;;;;;;;;;;5.30;99.90;;;;;;4992722;28;1288;-61
2022/12/06 05:39:40;;;;;;;;;;;5.30;99.90;;;;;;4990318;28;1056;-60
2022/12/06 05:42:06;;;;;;;;;;;5.30;99.90;;;;;;4990907;28;1134;-61
2022/12/06 05:44:31;;;;;;;;;;;5.20;99.90;;;;;;4989190;28;1906;-61
2022/12/06 05:46:57;;;;;;;;;;;5.20;99.90;;;;;;4972625;28;1166;-61
2022/12/06 05:49:22;;;;;;;;;;;5.20;99.90;;;;;;4990833;28;1079;-61
2022/12/06 05:51:48;;;;;;;;;;;5.30;99.90;;;;;;4985269;28;1024;-61
2022/12/06 05:54:13;;;;;;;;;;;5.20;99.90;;;;;;4989721;28;1107;-60
2022/12/06 05:56:39;;;;;;;;;;;5.00;99.90;;;;;;5006482;28;1282;-61
2022/12/06 05:59:05;;;;;;;;;;;5.00;99.90;;;;;;5009914;28;1110;-61
2022/12/06 06:01:30;;;;;;;;;;;4.90;99.90;;;;;;5009382;28;1161;-61
2022/12/06 06:03:56;;;;;;;;;;;5.10;99.90;;;;;;5002929;28;1966;-61
2022/12/06 06:06:22;;;;;;;;;;;5.00;99.90;;;;;;5009935;28;1181;-61
2022/12/06 06:08:48;;;;;;;;;;;5.00;99.90;;;;;;5009343;28;1122;-61
2022/12/06 06:11:14;;;;;;;;;;;5.00;99.90;;;;;;5006932;28;1091;-61
2022/12/06 06:13:40;;;;;;;;;;;5.00;99.90;;;;;;4993282;28;1181;-61
2022/12/06 06:16:05;;;;;;;;;;;5.00;99.90;;;;;;4972465;28;2055;-61
2022/12/06 06:18:31;;;;;;;;;;;5.10;99.90;;;;;;4990008;28;1216;-61
2022/12/06 06:20:58;;;;;;;;;;;5.00;99.90;;;;;;4992078;28;1166;-61
2022/12/06 06:23:24;;;;;;;;;;;4.90;99.90;;;;;;5002239;28;1969;-61
2022/12/06 06:25:50;;;;;;;;;;;5.10;99.90;;;;;;4990074;28;1150;-61
2022/12/06 06:28:16;;;;;;;;;;;5.00;99.90;;;;;;4989471;28;1111;-61
2022/12/06 06:30:42;;;;;;;;;;;5.00;99.90;;;;;;4988080;28;1151;-61
2022/12/06 06:33:08;;;;;;;;;;;5.00;99.90;;;;;;4989968;28;1658;-61
2022/12/06 06:35:34;;;;;;;;;;;5.50;99.90;;;;;;4992511;28;1166;-61
2022/12/06 06:38:00;;;;;;;;;;;4.90;99.90;;;;;;4981122;28;1290;-61
2022/12/06 06:40:26;;;;;;;;;;;4.90;99.90;;;;;;5006188;28;1115;-60
2022/12/06 06:42:52;;;;;;;;;;;4.90;99.90;;;;;;5008943;28;1981;-61
2022/12/06 06:45:18;;;;;;;;;;;4.80;99.90;;;;;;5009152;28;1074;-61
2022/12/06 06:47:43;;;;;;;;;;;4.70;99.90;;;;;;5007022;28;1195;-61
2022/12/06 06:50:09;;;;;;;;;;;4.60;99.90;;;;;;5008501;28;1150;-61
2022/12/06 06:52:35;;;;;;;;;;;4.60;99.90;;;;;;5009129;28;1102;-61
2022/12/06 06:55:00;;;;;;;;;;;4.60;99.90;;;;;;5010406;28;1122;-61
2022/12/06 06:57:26;;;;;;;;;;;4.50;99.90;;;;;;5003003;28;1128;-60
2022/12/06 06:59:52;;;;;;;;;;;4.40;99.90;;;;;;5013058;28;1157;-61
2022/12/06 07:02:18;;;;;;;;;;;4.50;99.90;;;;;;5013414;28;1153;-61
2022/12/06 07:04:43;;;;;;;;;;;4.30;99.90;;;;;;5005953;28;1910;-61
2022/12/06 07:07:09;;;;;;;;;;;4.20;99.90;;;;;;4993373;28;1139;-61
2022/12/06 07:09:35;;;;;;;;;;;4.10;99.90;;;;;;4993861;28;1119;-61
2022/12/06 07:12:01;;;;;;;;;;;4.00;99.90;;;;;;4993003;28;1127;-61
2022/12/06 07:14:27;;;;;;;;;;;4.00;99.90;;;;;;5004590;28;1163;-61
2022/12/06 07:16:52;;;;;;;;;;;4.00;99.90;;;;;;5012711;28;1083;-61
2022/12/06 07:19:18;;;;;;;;;;;3.80;99.90;;;;;;5004693;28;1197;-61
2022/12/06 07:21:44;;;;;;;;;;;3.70;99.90;;;;;;4993089;28;1119;-61
2022/12/06 07:24:09;;;;;;;;;;;3.50;99.90;;;;;;5008211;28;1989;-61
2022/12/06 07:26:35;;;;;;;;;;;3.40;99.90;;;;;;5012759;28;1094;-61
2022/12/06 07:29:01;;;;;;;;;;;3.30;99.90;;;;;;5010350;28;1067;-61
2022/12/06 07:31:27;;;;;;;;;;;3.30;99.90;;;;;;4991441;28;1247;-60
2022/12/06 07:33:55;;;;;;;;;;;3.10;99.90;;;;;;4995770;28;1264;-61
2022/12/06 07:36:22;;;;;;;;;;;3.50;99.90;;;;;;4990345;28;1166;-61
2022/12/06 07:38:48;;;;;;;;;;;;;;;;;;4992556;28;1344;-61
2022/12/06 07:46:44;;;;;;;;;;;2.70;99.90;;;;;;5011977;28;1162;-61
2022/12/06 07:49:10;;;;;;;;;;;2.70;99.90;;;;;;5004728;28;1142;-61
2022/12/06 07:51:36;;;;;;;;;;;2.60;99.90;;;;;;4992942;28;1289;-60
2022/12/06 07:54:01;;;;;;;;;;;2.50;99.90;;;;;;4993251;28;1225;-61
2022/12/06 07:56:27;;;;;;;;;;;2.50;99.90;;;;;;4992640;28;1230;-61
2022/12/06 07:58:53;;;;;;;;;;;2.50;99.90;;;;;;4999826;28;1223;-60
2022/12/06 08:01:19;;;;;;;;;;;2.40;99.90;;;;;;5011393;28;1142;-61
2022/12/06 08:03:44;;;;;;;;;;;2.40;99.90;;;;;;5012116;28;1977;-60
2022/12/06 08:06:10;;;;;;;;;;;2.40;99.90;;;;;;5009690;28;1029;-61
2022/12/06 08:08:36;;;;;;;;;;;2.40;99.90;;;;;;5011882;28;1087;-61
2022/12/06 08:11:04;;;;;;;;;;;2.50;99.90;;;;;;4994227;28;1162;-61
2022/12/06 08:13:30;;;;;;;;;;;2.50;99.90;;;;;;5007201;28;1262;-61
2022/12/06 08:15:56;;;;;;;;;;;2.50;99.90;;;;;;4993053;28;1096;-61
2022/12/06 08:18:22;;;;;;;;;;;2.60;99.90;;;;;;4999833;28;1194;-61
2022/12/06 08:20:47;;;;;;;;;;;2.80;99.90;;;;;;4991662;28;1099;-61
2022/12/06 08:23:13;;;;;;;;;;;3.00;99.90;;;;;;4992312;28;1984;-61
2022/12/06 08:25:39;;;;;;;;;;;3.10;99.90;;;;;;5006174;28;970;-61
2022/12/06 08:28:04;;;;;;;;;;;3.30;99.90;;;;;;5003437;28;1067;-61
2022/12/06 08:30:30;;;;;;;;;;;3.40;99.90;;;;;;4999455;28;1217;-61
2022/12/06 08:32:56;;;;;;;;;;;3.50;99.90;;;;;;4991853;28;1646;-61
2022/12/06 08:35:21;;;;;;;;;;;3.60;99.90;;;;;;4999882;28;1072;-61
2022/12/06 08:37:47;;;;;;;;;;;3.90;99.90;;;;;;4992133;28;1369;-61
2022/12/06 08:40:13;;;;;;;;;;;3.80;99.90;;;;;;4991380;28;1059;-61
2022/12/06 08:42:38;;;;;;;;;;;3.90;99.90;;;;;;4996371;28;1918;-61
2022/12/06 08:45:04;;;;;;;;;;;4.00;99.90;;;;;;4993318;28;1111;-61
2022/12/06 08:47:30;;;;;;;;;;;4.00;99.90;;;;;;4993988;28;1304;-61
2022/12/06 08:49:57;;;;;;;;;;;4.10;99.90;;;;;;4993836;28;1221;-61
2022/12/06 08:52:23;;;;;;;;;;;4.10;99.90;;;;;;4991342;28;1276;-61
2022/12/06 08:54:49;;;;;;;;;;;4.20;99.90;;;;;;4991775;28;1107;-61
2022/12/06 08:57:14;;;;;;;;;;;4.10;99.90;;;;;;4990930;28;1154;-61
2022/12/06 08:59:40;;;;;;;;;;;4.10;99.90;;;;;;4992653;28;1079;-61
2022/12/06 09:02:05;;;;;;;;;;;4.20;99.90;;;;;;5010949;28;1122;-61
2022/12/06 09:04:31;;;;;;;;;;;4.30;99.90;;;;;;5009833;28;1981;-61
2022/12/06 09:06:57;;;;;;;;;;;4.40;99.90;;;;;;5011164;28;1162;-61
2022/12/06 09:09:23;;;;;;;;;;;4.50;99.90;;;;;;4999755;28;1130;-61
2022/12/06 09:11:49;;;;;;;;;;;4.60;99.90;;;;;;5010805;28;1110;-61
2022/12/06 09:14:15;;;;;;;;;;;4.70;99.90;;;;;;5001144;28;1205;-61
2022/12/06 09:16:42;;;;;;;;;;;4.80;99.90;;;;;;4990746;28;1178;-61
2022/12/06 09:19:08;;;;;;;;;;;4.80;99.90;;;;;;5004781;28;1192;-61
2022/12/06 09:21:34;;;;;;;;;;;5.10;99.90;;;;;;5010836;28;1115;-61
2022/12/06 09:24:00;;;;;;;;;;;4.90;99.90;;;;;;5010129;28;1906;-61
2022/12/06 09:26:26;;;;;;;;;;;4.90;99.90;;;;;;4985424;28;1849;-61
2022/12/06 09:28:53;;;;;;;;;;;5.00;99.90;;;;;;5006204;28;1126;-61
2022/12/06 09:31:18;;;;;;;;;;;5.00;99.90;;;;;;4996072;28;1362;-61
2022/12/06 09:33:44;;;;;;;;;;;5.00;99.90;;;;;;4990791;28;1149;-61
2022/12/06 09:36:13;;;;;;;;;;;5.00;99.90;;;;;;4990417;28;1081;-61
2022/12/06 09:38:39;;;;;;;;;;;5.20;99.90;;;;;;4990768;28;1249;-61
2022/12/06 09:41:17;;;;;;;;;;;5.30;99.90;;;;;;4990228;28;1093;-61
2022/12/06 09:43:58;;;;;;;;;;;5.60;99.90;;;;;;4990515;28;1914;-61
2022/12/06 09:46:39;;;;;;;;;;;6.10;99.90;;;;;;5002083;28;1107;-61
2022/12/06 09:49:05;;;;;;;;;;;7.00;99.90;;;;;;5010096;28;1040;-61
2022/12/06 09:51:38;;;;;;;;;;;8.00;99.90;;;;;;5010301;28;1099;-61
2022/12/06 09:54:04;;;;;;;;;;;8.60;99.90;;;;;;4985954;28;1668;-61
2022/12/06 09:56:38;;;;;;;;;;;9.10;99.90;;;;;;4990340;28;1178;-61
2022/12/06 09:59:12;;;;;;;;;;;9.40;99.90;;;;;;4990002;28;1111;-61
2022/12/06 10:01:39;;;;;;;;;;;9.80;99.90;;;;;;4974549;28;1179;-61
2022/12/06 10:04:17;;;;;;;;;;;10.10;99.90;;;;;;5000353;28;1914;-61
2022/12/06 10:06:47;;;;;;;;;;;10.30;99.90;;;;;;5009348;28;1162;-61
2022/12/06 10:09:13;;;;;;;;;;;10.70;99.90;;;;;;4992296;28;1123;-61
2022/12/06 10:12:01;;;;;;;;;;;11.00;99.90;;;;;;5000876;28;1015;-61
2022/12/06 10:14:40;;;;;;;;;;;11.40;99.90;;;;;;4999789;28;1693;-61
2022/12/06 10:17:20;;;;;;;;;;;11.00;99.90;;;;;;4990355;28;1150;-61
2022/12/06 10:19:47;;;;;;;;;;;11.20;99.90;;;;;;4987918;28;1315;-61
2022/12/06 10:22:31;;;;;;;;;;;10.10;99.90;;;;;;4989447;28;1320;-61
2022/12/06 10:25:02;;;;;;;;;;;9.30;99.90;;;;;;4990296;28;1151;-61
2022/12/06 10:27:38;;;;;;;;;;;8.20;99.90;;;;;;4989106;28;1166;-61
2022/12/06 10:30:09;;;;;;;;;;;7.40;99.90;;;;;;4980290;28;1319;-61
2022/12/06 10:32:35;;;;;;;;;;;7.30;99.90;;;;;;4988319;28;1386;-61
2022/12/06 10:35:14;;;;;;;;;;;7.10;99.90;;;;;;4989250;28;1040;-61
2022/12/06 10:37:45;;;;;;;;;;;7.00;99.90;;;;;;4981144;28;1246;-61
2022/12/06 10:40:37;;;;;;;;;;;6.80;99.90;;;;;;4989069;28;1582;-61
2022/12/06 10:43:16;;;;;;;;;;;7.10;99.90;;;;;;4987890;28;3143;-61
2022/12/06 10:48:35;;;;;;;;;;;7.10;99.90;;;;;;4990994;28;3440;-61
2022/12/06 10:51:03;;;;;;;;;;;7.20;99.90;;;;;;4992160;28;1214;-61
2022/12/06 10:53:31;;;;;;;;;;;7.80;99.90;;;;;;4994345;28;1238;-61
2022/12/06 10:56:00;;;;;;;;;;;7.70;99.90;;;;;;4991045;28;1202;-61
2022/12/06 10:58:25;;;;;;;;;;;7.60;99.90;;;;;;4989565;28;1095;-61
2022/12/06 11:00:53;;;;;;;;;;;7.50;99.90;;;;;;4972301;28;1270;-61
2022/12/06 11:03:22;;;;;;;;;;;6.60;99.90;;;;;;4970639;28;1983;-60
2022/12/06 11:05:59;;;;;;;;;;;7.50;99.90;;;;;;5000952;28;1095;-61
2022/12/06 11:08:25;;;;;;;;;;;8.00;99.90;;;;;;5009410;28;1244;-61
2022/12/06 11:10:53;;;;;;;;;;;8.20;99.90;;;;;;5008461;28;1106;-61
2022/12/06 11:13:21;;;;;;;;;;;8.50;99.90;;;;;;4998754;28;1232;-61
2022/12/06 11:15:50;;;;;;;;;;;8.30;99.90;;;;;;5009133;28;1169;-63
2022/12/06 11:18:16;;;;;;;;;;;8.30;99.90;;;;;;4992770;28;1180;-63
2022/12/06 11:20:46;;;;;;;;;;;8.70;99.90;;;;;;4989158;28;1063;-63
2022/12/06 11:23:29;;;;;;;;;;;8.90;99.90;;;;;;4996827;28;1914;-63
2022/12/06 11:26:00;;;;;;;;;;;8.90;99.90;;;;;;5008916;28;1122;-61
2022/12/06 11:28:32;;;;;;;;;;;8.60;99.90;;;;;;5008861;28;1171;-61
2022/12/06 11:30:58;;;;;;;;;;;8.80;99.90;;;;;;4995442;28;1150;-61
2022/12/06 11:33:28;;;;;;;;;;;9.10;99.90;;;;;;4989124;28;1596;-61
2022/12/06 11:35:53;;;;;;;;;;;9.90;99.90;;;;;;4995244;28;1171;-61
2022/12/06 11:38:19;;;;;;;;;;;10.80;99.90;;;;;;4995399;28;1275;-61
2022/12/06 11:40:46;;;;;;;;;;;11.40;99.90;;;;;;5007646;28;1068;-61
2022/12/06 11:43:16;;;;;;;;;;;12.00;99.90;;;;;;5011427;28;1898;-61
2022/12/06 11:45:44;;;;;;;;;;;12.10;99.90;;;;;;5011850;28;1166;-61
2022/12/06 11:48:12;;;;;;;;;;;11.70;99.90;;;;;;4985983;28;1150;-61
2022/12/06 11:50:40;;;;;;;;;;;11.20;99.90;;;;;;4980325;28;1084;-61
2022/12/06 11:53:10;;;;;;;;;;;11.20;99.90;;;;;;4992097;28;1123;-61
2022/12/06 11:55:40;;;;;;;;;;;11.00;99.90;;;;;;4992455;28;1143;-61
2022/12/06 11:58:10;;;;;;;;;;;11.00;99.90;;;;;;5006969;28;1136;-61
2022/12/06 12:00:36;;;;;;;;;;;10.70;99.90;;;;;;5012162;28;1197;-61
2022/12/06 12:03:02;;;;;;;;;;;10.10;99.90;;;;;;5011620;28;1910;-61
2022/12/06 12:05:29;;;;;;;;;;;9.30;99.90;;;;;;5005928;28;1230;-61
2022/12/06 12:07:55;;;;;;;;;;;8.90;99.90;;;;;;4992735;28;1166;-61
2022/12/06 12:10:21;;;;;;;;;;;8.80;99.90;;;;;;4992574;28;1032;-61
2022/12/06 12:15:31;;;;;;;;;;;9.30;99.90;;;;;;4998724;28;1088;-61
2022/12/06 12:17:58;;;;;;;;;;;10.50;99.90;;;;;;5011722;28;1197;-61
2022/12/06 12:20:26;;;;;;;;;;;11.40;99.90;;;;;;4993477;28;1094;-61
2022/12/06 12:22:57;;;;;;;;;;;11.70;99.90;;;;;;5008889;28;1910;-62
2022/12/06 12:25:26;;;;;;;;;;;12.10;99.90;;;;;;5004380;28;1080;-61
2022/12/06 12:27:53;;;;;;;;;;;12.90;99.90;;;;;;5011123;28;1169;-61
2022/12/06 12:30:20;;;;;;;;;;;13.60;99.90;;;;;;5006121;28;1094;-61
2022/12/06 12:32:46;;;;;;;;;;;13.80;99.90;;;;;;4998488;28;1627;-61
2022/12/06 12:35:26;;;;;;;;;;;13.20;99.90;;;;;;5006076;28;1106;-62
2022/12/06 12:37:55;;;;;;;;;;;12.80;99.90;;;;;;4992382;28;1270;-61
2022/12/06 12:40:28;;;;;;;;;;;12.60;99.90;;;;;;4973454;28;1134;-62
2022/12/06 12:42:57;;;;;;;;;;;13.00;99.90;;;;;;4974164;28;1971;-61
2022/12/06 12:45:25;;;;;;;;;;;13.00;99.90;;;;;;4992383;28;1064;-61
2022/12/06 12:47:55;;;;;;;;;;;13.40;99.90;;;;;;4990941;28;1122;-61
2022/12/06 12:50:22;;;;;;;;;;;13.60;99.90;;;;;;4991619;28;1118;-62
2022/12/06 12:52:49;;;;;;;;;;;13.60;99.90;;;;;;4984323;28;3533;-61
2022/12/06 12:55:15;;;;;;;;;;;12.90;99.90;;;;;;4989528;28;1127;-61
2022/12/06 12:57:42;;;;;;;;;;;11.70;99.90;;;;;;4974095;28;1141;-61
2022/12/06 13:00:08;;;;;;;;;;;;;;;;;;4989602;28;2336;-61
2022/12/06 13:02:34;;;;;;;;;;;9.70;99.90;;;;;;4990356;28;1575;-61
2022/12/06 13:05:04;;;;;;;;;;;9.40;99.90;;;;;;4989623;28;1910;-61
2022/12/06 13:07:33;;;;;;;;;;;9.30;99.90;;;;;;4991483;28;1222;-61
2022/12/06 13:09:59;;;;;;;;;;;;;;;;;;4990665;28;1110;-61
2022/12/06 13:12:28;;;;;;;;;;;8.80;99.90;;;;;;4990126;28;1151;-61
2022/12/06 13:14:59;;;;;;;;;;;9.40;99.90;;;;;;5001722;28;2321;-61
2022/12/06 13:17:26;;;;;;;;;;;9.80;99.90;;;;;;4971927;28;1517;-61
2022/12/06 13:19:52;;;;;;;;;;;10.10;99.90;;;;;;4991084;28;1517;-61
2022/12/06 13:22:22;;;;;;;;;;;9.40;99.90;;;;;;4991356;28;1178;-61
2022/12/06 13:24:54;;;;;;;;;;;9.10;99.90;;;;;;4989710;28;1974;-61
2022/12/06 13:27:21;;;;;;;;;;;9.00;99.90;;;;;;4971689;28;3009;-61
2022/12/06 13:30:05;;;;;;;;;;;8.50;99.90;;;;;;4979257;28;3125;-61
2022/12/06 13:32:35;;;;;;;;;;;8.00;99.90;;;;;;4989944;28;1387;-61
2022/12/06 13:35:02;;;;;;;;;;;7.90;99.90;;;;;;4998318;28;2984;-61
2022/12/06 13:37:33;;;;;;;;;;;7.80;99.90;;;;;;4990363;28;1317;-61
2022/12/06 13:39:59;;;;;;;;;;;7.70;99.90;;;;;;4989615;28;1072;-61
2022/12/06 13:42:28;;;;;;;;;;;7.60;99.90;;;;;;4990299;28;1103;-61
2022/12/06 13:44:55;;;;;;;;;;;7.50;99.90;;;;;;4989969;28;1969;-61
2022/12/06 13:47:25;;;;;;;;;;;7.70;99.90;;;;;;4990683;28;1172;-61
2022/12/06 13:49:50;;;;;;;;;;;7.40;99.90;;;;;;4990562;28;1190;-61
2022/12/06 13:52:35;;;;;;;;;;;7.40;99.90;;;;;;4996548;28;1239;-61
2022/12/06 13:55:21;;;;;;;;;;;7.40;99.90;;;;;;5010028;28;1133;-61
2022/12/06 13:57:46;;;;;;;;;;;7.20;99.90;;;;;;5009526;28;1116;-61
2022/12/06 14:00:27;;;;;;;;;;;7.40;99.90;;;;;;4989110;28;1135;-61
2022/12/06 14:02:54;;;;;;;;;;;7.40;99.90;;;;;;5004736;28;1906;-61
2022/12/06 14:05:38;;;;;;;;;;;7.50;99.90;;;;;;5008777;28;1114;-61
2022/12/06 14:08:04;;;;;;;;;;;7.50;99.90;;;;;;5009989;28;1106;-61
2022/12/06 14:10:29;;;;;;;;;;;7.30;99.90;;;;;;5002724;28;1265;-61
2022/12/06 14:13:02;;;;;;;;;;;7.40;99.90;;;;;;5009267;28;1165;-61
2022/12/06 14:15:28;;;;;;;;;;;7.50;99.90;;;;;;4963907;28;1120;-61
2022/12/06 14:17:54;;;;;;;;;;;7.30;99.90;;;;;;4988379;28;1139;-61
2022/12/06 14:20:20;;;;;;;;;;;7.40;99.90;;;;;;5000773;28;1009;-61
2022/12/06 14:22:47;;;;;;;;;;;7.20;99.90;;;;;;5009650;28;1906;-61
2022/12/06 14:25:16;;;;;;;;;;;7.20;99.90;;;;;;5009920;28;1150;-61
2022/12/06 14:27:43;;;;;;;;;;;7.20;99.90;;;;;;4999254;28;1130;-61
2022/12/06 14:30:11;;;;;;;;;;;7.20;99.90;;;;;;4989406;28;1322;-61
2022/12/06 14:32:40;;;;;;;;;;;7.10;99.90;;;;;;4989916;28;1294;-61
2022/12/06 14:35:10;;;;;;;;;;;7.10;99.90;;;;;;4989297;28;1154;-61
2022/12/06 14:37:35;;;;;;;;;;;7.10;99.90;;;;;;4989004;28;1273;-61
2022/12/06 14:40:08;;;;;;;;;;;7.10;99.90;;;;;;4989299;28;1216;-61
2022/12/06 14:45:20;;;;;;;;;;;;;;;;;;4992853;28;1143;-61
2022/12/06 14:47:46;;;;;;;;;;;6.70;99.90;;;;;;5008731;28;1142;-61
2022/12/06 14:50:31;;;;;;;;;;;6.80;99.90;;;;;;5009479;28;1253;-61
2022/12/06 14:52:59;;;;;;;;;;;6.80;99.90;;;;;;5008473;28;1114;-61
2022/12/06 14:55:26;;;;;;;;;;;6.70;99.90;;;;;;4976740;28;1147;-61
2022/12/06 14:58:00;;;;;;;;;;;6.70;99.90;;;;;;4989979;28;1080;-61
2022/12/06 15:00:37;;;;;;;;;;;6.60;99.90;;;;;;4989532;28;1157;-61
2022/12/06 15:03:10;;;;;;;;;;;6.70;99.90;;;;;;4991536;28;1971;-61
2022/12/06 15:05:37;;;;;;;;;;;6.60;99.90;;;;;;5009225;28;1114;-61
2022/12/06 15:08:17;;;;;;;;;;;6.50;99.90;;;;;;5000198;28;1103;-61
2022/12/06 15:10:53;;;;;;;;;;;6.50;99.90;;;;;;4989510;28;1072;-61
2022/12/06 15:13:19;;;;;;;;;;;6.40;99.90;;;;;;4979576;28;1228;-61
2022/12/06 15:15:46;;;;;;;;;;;6.40;99.90;;;;;;5007971;28;1177;-61
2022/12/06 15:18:18;;;;;;;;;;;6.40;99.90;;;;;;5011868;28;967;-61
2022/12/06 15:20:44;;;;;;;;;;;6.30;99.90;;;;;;5003902;28;1121;-61